createdAt,value
2016-06-25T00:00:20.123Z,93.54
2016-06-25T00:01:21.727Z,93.83
2016-06-25T00:02:20.125Z,93.73
2016-06-25T00:03:20.212Z,93.44
2016-06-25T00:04:20.215Z,93.83
2016-06-25T00:05:21.150Z,93.73
2016-06-25T00:06:20.095Z,93.63
2016-06-25T00:07:20.139Z,93.44
2016-06-25T00:08:21.054Z,93.44
2016-06-25T00:09:21.141Z,93.26
2016-06-25T00:10:21.021Z,93.35
2016-06-25T00:11:20.086Z,93.26
2016-06-25T00:12:20.032Z,92.97
2016-06-25T00:13:20.197Z,93.83
2016-06-25T00:14:20.067Z,93.93
2016-06-25T00:15:19.926Z,93.93
2016-06-25T00:16:20.858Z,93.54
2016-06-25T00:17:20.088Z,93.16
2016-06-25T00:18:21.320Z,93.06
2016-06-25T00:19:20.029Z,93.06
2016-06-25T00:20:20.889Z,93.26
2016-06-25T00:21:21.321Z,93.11
2016-06-25T00:22:20.700Z,93.06
2016-06-25T00:23:20.064Z,93.06
2016-06-25T00:24:22.033Z,93.44
2016-06-25T00:25:21.039Z,92.87
2016-06-25T00:26:20.927Z,93.54
2016-06-25T00:27:19.872Z,93.54
2016-06-25T00:28:19.857Z,93.35
2016-06-25T00:29:19.853Z,93.73
2016-06-25T00:30:22.851Z,93.88
2016-06-25T00:31:23.043Z,94.45
2016-06-25T00:32:22.838Z,94.07
2016-06-25T00:33:22.953Z,94.84
2016-06-25T00:34:23.123Z,94.84
2016-06-25T00:35:22.895Z,94.55
2016-06-25T00:36:23.051Z,94.17
2016-06-25T00:37:22.903Z,94.26
2016-06-25T00:38:23.098Z,94.07
2016-06-25T00:39:23.095Z,94.07
2016-06-25T00:40:23.122Z,93.88
2016-06-25T00:41:23.067Z,94.55
2016-06-25T00:42:23.108Z,93.78
2016-06-25T00:43:23.037Z,94.17
2016-06-25T00:44:23.083Z,94.07
2016-06-25T00:45:23.306Z,93.59
2016-06-25T00:46:23.441Z,93.98
2016-06-25T00:47:23.187Z,93.98
2016-06-25T00:48:23.287Z,94.17
2016-06-25T00:49:23.225Z,94.35
2016-06-25T00:50:23.081Z,94.45
2016-06-25T00:51:23.185Z,94.26
2016-06-25T00:52:23.209Z,93.3
2016-06-25T00:53:23.264Z,93.3
2016-06-25T00:54:23.336Z,94.74
2016-06-25T00:55:24.261Z,94.35
2016-06-25T00:56:23.011Z,93.88
2016-06-25T00:57:23.236Z,94.26
2016-06-25T00:58:23.007Z,94.74
2016-06-25T00:59:23.616Z,94.64
2016-06-25T01:00:22.994Z,94.93
2016-06-25T01:01:23.039Z,95.6
2016-06-25T01:02:23.270Z,94.93
2016-06-25T01:03:23.095Z,95.7
2016-06-25T01:04:22.919Z,95.7
2016-06-25T01:05:23.000Z,94.84
2016-06-25T01:06:23.288Z,94.74
2016-06-25T01:07:22.854Z,94.84
2016-06-25T01:08:23.089Z,94.64
2016-06-25T01:09:23.149Z,95.31
2016-06-25T01:10:22.908Z,95.41
2016-06-25T01:11:23.048Z,95.17
2016-06-25T01:12:23.083Z,95.41
2016-06-25T01:13:23.020Z,94.69
2016-06-25T01:14:23.170Z,94.74
2016-06-25T01:15:22.899Z,94.45
2016-06-25T01:16:23.065Z,94.21
2016-06-25T01:17:23.284Z,94.02
2016-06-25T01:18:23.586Z,94.31
2016-06-25T01:19:23.717Z,94.4
